sensor_id;sensor_type;location;lat;lon;timestamp;noise_LAeq;noise_LA_min;noise_LA_max;noise_LA01;noise_LA95
74496;Laerm;62979;55.720;37.606;2022-08-21T00:01:21;45.96;41.83;56.02;;
74496;Laerm;62979;55.720;37.606;2022-08-21T00:03:49;48.16;42.36;73.09;;
74496;Laerm;62979;55.720;37.606;2022-08-21T00:06:18;46.80;42.71;54.04;;
74496;Laerm;62979;55.720;37.606;2022-08-21T00:08:45;48.98;43.84;59.84;;
74496;Laerm;62979;55.720;37.606;2022-08-21T00:11:13;47.73;43.37;56.84;;
74496;Laerm;62979;55.720;37.606;2022-08-21T00:13:40;48.23;41.37;52.41;;
74496;Laerm;62979;55.720;37.606;2022-08-21T00:16:07;45.07;41.55;58.47;;
74496;Laerm;62979;55.720;37.606;2022-08-21T00:18:34;46.54;41.98;55.49;;
74496;Laerm;62979;55.720;37.606;2022-08-21T00:21:02;45.85;41.04;55.79;;
74496;Laerm;62979;55.720;37.606;2022-08-21T00:23:34;46.25;42.86;49.72;;
74496;Laerm;62979;55.720;37.606;2022-08-21T00:26:02;46.75;43.61;51.19;;
74496;Laerm;62979;55.720;37.606;2022-08-21T00:28:31;47.44;43.05;55.56;;
74496;Laerm;62979;55.720;37.606;2022-08-21T00:30:58;48.21;42.36;62.16;;
74496;Laerm;62979;55.720;37.606;2022-08-21T00:33:26;48.67;42.32;58.88;;
74496;Laerm;62979;55.720;37.606;2022-08-21T00:35:53;45.41;41.66;51.67;;
74496;Laerm;62979;55.720;37.606;2022-08-21T00:38:20;45.40;41.53;51.91;;
74496;Laerm;62979;55.720;37.606;2022-08-21T00:40:54;45.54;41.92;50.46;;
74496;Laerm;62979;55.720;37.606;2022-08-21T00:43:25;46.56;41.27;52.04;;
74496;Laerm;62979;55.720;37.606;2022-08-21T00:45:55;47.15;43.81;51.57;;
74496;Laerm;62979;55.720;37.606;2022-08-21T00:48:24;48.26;41.38;62.53;;
74496;Laerm;62979;55.720;37.606;2022-08-21T00:50:58;45.82;41.39;54.00;;
74496;Laerm;62979;55.720;37.606;2022-08-21T00:53:27;46.19;41.71;58.64;;
74496;Laerm;62979;55.720;37.606;2022-08-21T00:55:59;45.79;41.21;53.05;;
74496;Laerm;62979;55.720;37.606;2022-08-21T00:58:29;47.49;42.63;57.58;;
74496;Laerm;62979;55.720;37.606;2022-08-21T01:01:01;47.31;43.60;56.57;;
74496;Laerm;62979;55.720;37.606;2022-08-21T01:03:28;47.79;43.70;56.49;;
74496;Laerm;62979;55.720;37.606;2022-08-21T01:05:55;48.87;41.90;61.63;;
74496;Laerm;62979;55.720;37.606;2022-08-21T01:08:23;45.23;41.98;54.32;;
74496;Laerm;62979;55.720;37.606;2022-08-21T01:10:52;44.82;41.21;48.65;;
74496;Laerm;62979;55.720;37.606;2022-08-21T01:13:23;46.21;41.93;53.50;;
74496;Laerm;62979;55.720;37.606;2022-08-21T01:15:53;48.16;43.75;55.97;;
74496;Laerm;62979;55.720;37.606;2022-08-21T01:18:21;47.99;43.66;55.95;;
74496;Laerm;62979;55.720;37.606;2022-08-21T01:21:06;48.43;44.02;59.73;;
74496;Laerm;62979;55.720;37.606;2022-08-21T01:23:36;48.27;42.25;62.92;;
74496;Laerm;62979;55.720;37.606;2022-08-21T01:26:04;45.62;41.42;54.49;;
74496;Laerm;62979;55.720;37.606;2022-08-21T01:28:38;46.10;41.71;50.43;;
74496;Laerm;62979;55.720;37.606;2022-08-21T01:31:08;45.62;41.67;52.90;;
74496;Laerm;62979;55.720;37.606;2022-08-21T01:33:37;46.55;42.97;50.36;;
74496;Laerm;62979;55.720;37.606;2022-08-21T01:36:15;47.00;43.73;51.59;;
74496;Laerm;62979;55.720;37.606;2022-08-21T01:38:42;47.15;43.83;51.12;;
74496;Laerm;62979;55.720;37.606;2022-08-21T01:41:10;48.22;42.04;60.60;;
74496;Laerm;62979;55.720;37.606;2022-08-21T01:43:37;47.05;42.18;58.63;;
74496;Laerm;62979;55.720;37.606;2022-08-21T01:46:04;46.91;41.76;55.55;;
74496;Laerm;62979;55.720;37.606;2022-08-21T01:48:32;46.39;41.58;57.97;;
74496;Laerm;62979;55.720;37.606;2022-08-21T01:50:59;47.39;43.22;55.33;;
74496;Laerm;62979;55.720;37.606;2022-08-21T01:53:28;46.81;43.53;50.52;;
74496;Laerm;62979;55.720;37.606;2022-08-21T01:55:55;46.81;43.85;51.14;;
74496;Laerm;62979;55.720;37.606;2022-08-21T01:58:22;51.91;43.55;64.22;;
74496;Laerm;62979;55.720;37.606;2022-08-21T02:00:49;47.80;42.33;62.22;;
74496;Laerm;62979;55.720;37.606;2022-08-21T02:03:16;46.15;41.97;51.64;;
74496;Laerm;62979;55.720;37.606;2022-08-21T02:05:43;46.49;42.57;57.14;;
74496;Laerm;62979;55.720;37.606;2022-08-21T02:08:11;46.92;42.91;55.85;;
74496;Laerm;62979;55.720;37.606;2022-08-21T02:10:39;46.98;43.59;53.22;;
74496;Laerm;62979;55.720;37.606;2022-08-21T02:13:08;47.09;43.47;50.65;;
74496;Laerm;62979;55.720;37.606;2022-08-21T02:15:35;48.92;44.44;59.25;;
74496;Laerm;62979;55.720;37.606;2022-08-21T02:18:05;47.25;42.15;62.02;;
74496;Laerm;62979;55.720;37.606;2022-08-21T02:20:37;46.80;42.52;56.89;;
74496;Laerm;62979;55.720;37.606;2022-08-21T02:23:07;48.07;42.78;59.34;;
74496;Laerm;62979;55.720;37.606;2022-08-21T02:25:34;46.45;42.33;52.24;;
74496;Laerm;62979;55.720;37.606;2022-08-21T02:28:07;48.92;44.10;57.89;;
74496;Laerm;62979;55.720;37.606;2022-08-21T02:30:38;47.58;44.73;52.57;;
74496;Laerm;62979;55.720;37.606;2022-08-21T02:33:08;48.43;44.33;57.48;;
74496;Laerm;62979;55.720;37.606;2022-08-21T02:35:37;48.05;42.88;57.09;;
74496;Laerm;62979;55.720;37.606;2022-08-21T02:38:09;45.46;42.05;55.27;;
74496;Laerm;62979;55.720;37.606;2022-08-21T02:40:38;45.47;41.70;59.64;;
74496;Laerm;62979;55.720;37.606;2022-08-21T02:43:07;46.14;42.11;52.00;;
74496;Laerm;62979;55.720;37.606;2022-08-21T02:45:36;47.81;43.62;57.07;;
74496;Laerm;62979;55.720;37.606;2022-08-21T02:48:06;48.22;44.36;56.03;;
74496;Laerm;62979;55.720;37.606;2022-08-21T02:50:37;49.14;44.42;57.95;;
74496;Laerm;62979;55.720;37.606;2022-08-21T02:53:07;48.74;43.34;61.66;;
74496;Laerm;62979;55.720;37.606;2022-08-21T02:55:37;45.91;42.37;50.32;;
74496;Laerm;62979;55.720;37.606;2022-08-21T02:58:08;47.89;42.99;58.35;;
74496;Laerm;62979;55.720;37.606;2022-08-21T03:00:37;52.63;43.16;62.51;;
74496;Laerm;62979;55.720;37.606;2022-08-21T03:03:05;48.71;44.39;55.52;;
74496;Laerm;62979;55.720;37.606;2022-08-21T03:05:34;48.69;44.54;56.27;;
74496;Laerm;62979;55.720;37.606;2022-08-21T03:08:06;48.60;45.17;57.17;;
74496;Laerm;62979;55.720;37.606;2022-08-21T03:10:35;49.11;43.31;59.12;;
74496;Laerm;62979;55.720;37.606;2022-08-21T03:13:03;47.69;42.51;57.05;;
74496;Laerm;62979;55.720;37.606;2022-08-21T03:15:31;46.37;42.85;51.72;;
74496;Laerm;62979;55.720;37.606;2022-08-21T03:17:59;50.20;42.89;58.97;;
74496;Laerm;62979;55.720;37.606;2022-08-21T03:20:30;48.67;43.99;56.40;;
74496;Laerm;62979;55.720;37.606;2022-08-21T03:22:59;48.78;44.36;58.34;;
74496;Laerm;62979;55.720;37.606;2022-08-21T03:25:28;49.80;44.74;59.68;;
74496;Laerm;62979;55.720;37.606;2022-08-21T03:27:57;50.43;43.98;63.78;;
74496;Laerm;62979;55.720;37.606;2022-08-21T03:30:25;50.27;42.43;60.73;;
74496;Laerm;62979;55.720;37.606;2022-08-21T03:32:53;52.36;43.20;67.39;;
74496;Laerm;62979;55.720;37.606;2022-08-21T03:35:20;47.66;44.38;51.76;;
74496;Laerm;62979;55.720;37.606;2022-08-21T03:37:48;50.29;44.45;58.53;;
74496;Laerm;62979;55.720;37.606;2022-08-21T03:40:18;49.01;44.69;56.75;;
74496;Laerm;62979;55.720;37.606;2022-08-21T03:42:46;48.66;45.40;53.61;;
74496;Laerm;62979;55.720;37.606;2022-08-21T03:45:15;50.20;43.95;62.67;;
74496;Laerm;62979;55.720;37.606;2022-08-21T03:47:54;48.45;44.27;57.41;;
74496;Laerm;62979;55.720;37.606;2022-08-21T03:50:24;50.13;44.58;62.89;;
74496;Laerm;62979;55.720;37.606;2022-08-21T03:52:51;50.39;45.02;63.63;;
74496;Laerm;62979;55.720;37.606;2022-08-21T03:55:19;50.46;45.10;60.14;;
74496;Laerm;62979;55.720;37.606;2022-08-21T03:57:46;51.69;43.94;65.95;;
74496;Laerm;62979;55.720;37.606;2022-08-21T04:00:15;50.95;45.54;61.07;;
74496;Laerm;62979;55.720;37.606;2022-08-21T04:02:44;49.50;43.21;59.94;;
74496;Laerm;62979;55.720;37.606;2022-08-21T04:05:15;48.45;44.46;57.83;;
74496;Laerm;62979;55.720;37.606;2022-08-21T04:07:56;47.94;42.72;66.28;;
74496;Laerm;62979;55.720;37.606;2022-08-21T04:10:24;48.47;43.48;61.84;;
74496;Laerm;62979;55.720;37.606;2022-08-21T04:12:53;50.14;45.25;60.38;;
74496;Laerm;62979;55.720;37.606;2022-08-21T04:15:23;51.92;45.48;64.66;;
74496;Laerm;62979;55.720;37.606;2022-08-21T04:17:51;50.21;45.79;56.37;;
74496;Laerm;62979;55.720;37.606;2022-08-21T04:20:20;48.40;43.95;62.64;;
74496;Laerm;62979;55.720;37.606;2022-08-21T04:22:49;48.39;43.99;54.89;;
74496;Laerm;62979;55.720;37.606;2022-08-21T04:25:20;47.74;44.01;54.60;;
74496;Laerm;62979;55.720;37.606;2022-08-21T04:27:47;47.75;43.39;55.59;;
74496;Laerm;62979;55.720;37.606;2022-08-21T04:30:16;50.96;45.25;62.94;;
74496;Laerm;62979;55.720;37.606;2022-08-21T04:32:44;50.55;45.89;58.17;;
74496;Laerm;62979;55.720;37.606;2022-08-21T04:35:14;51.38;45.76;63.42;;
74496;Laerm;62979;55.720;37.606;2022-08-21T04:37:43;50.75;44.01;61.24;;
74496;Laerm;62979;55.720;37.606;2022-08-21T04:40:13;48.27;44.31;55.41;;
74496;Laerm;62979;55.720;37.606;2022-08-21T04:42:44;49.65;43.74;62.04;;
74496;Laerm;62979;55.720;37.606;2022-08-21T04:45:18;49.62;44.05;56.64;;
74496;Laerm;62979;55.720;37.606;2022-08-21T04:47:49;51.97;45.19;61.95;;
74496;Laerm;62979;55.720;37.606;2022-08-21T04:50:17;50.53;45.14;63.40;;
74496;Laerm;62979;55.720;37.606;2022-08-21T04:52:47;49.70;45.12;56.82;;
74496;Laerm;62979;55.720;37.606;2022-08-21T04:55:16;48.52;44.33;61.70;;
74496;Laerm;62979;55.720;37.606;2022-08-21T04:57:45;47.97;44.29;60.06;;
74496;Laerm;62979;55.720;37.606;2022-08-21T05:00:15;47.12;43.41;54.38;;
74496;Laerm;62979;55.720;37.606;2022-08-21T05:02:44;50.57;44.88;58.75;;
74496;Laerm;62979;55.720;37.606;2022-08-21T05:05:13;50.41;44.64;59.87;;
74496;Laerm;62979;55.720;37.606;2022-08-21T05:07:42;51.26;45.31;59.52;;
74496;Laerm;62979;55.720;37.606;2022-08-21T05:10:14;52.14;43.82;62.51;;
74496;Laerm;62979;55.720;37.606;2022-08-21T05:12:42;52.45;44.30;61.77;;
74496;Laerm;62979;55.720;37.606;2022-08-21T05:15:11;49.10;44.33;60.14;;
74496;Laerm;62979;55.720;37.606;2022-08-21T05:17:39;50.27;43.93;60.00;;
74496;Laerm;62979;55.720;37.606;2022-08-21T05:20:07;50.69;44.47;60.62;;
74496;Laerm;62979;55.720;37.606;2022-08-21T05:22:34;48.09;44.83;51.45;;
74496;Laerm;62979;55.720;37.606;2022-08-21T05:25:02;51.55;46.27;61.89;;
74496;Laerm;62979;55.720;37.606;2022-08-21T05:27:30;52.40;46.60;59.96;;
74496;Laerm;62979;55.720;37.606;2022-08-21T05:29:57;51.72;43.74;64.18;;
74496;Laerm;62979;55.720;37.606;2022-08-21T05:32:25;54.91;44.53;69.60;;
74496;Laerm;62979;55.720;37.606;2022-08-21T05:34:53;50.85;43.68;61.95;;
74496;Laerm;62979;55.720;37.606;2022-08-21T05:37:20;49.66;45.13;74.42;;
74496;Laerm;62979;55.720;37.606;2022-08-21T05:39:47;50.72;45.43;58.76;;
74496;Laerm;62979;55.720;37.606;2022-08-21T05:42:15;50.65;46.01;63.09;;
74496;Laerm;62979;55.720;37.606;2022-08-21T05:44:43;56.78;47.28;75.98;;
74496;Laerm;62979;55.720;37.606;2022-08-21T05:47:10;53.48;45.68;60.84;;
74496;Laerm;62979;55.720;37.606;2022-08-21T05:49:38;52.49;44.84;61.62;;
74496;Laerm;62979;55.720;37.606;2022-08-21T05:52:05;51.29;44.06;62.38;;
74496;Laerm;62979;55.720;37.606;2022-08-21T05:54:32;54.28;45.53;70.39;;
74496;Laerm;62979;55.720;37.606;2022-08-21T05:56:59;55.14;47.87;70.57;;
74496;Laerm;62979;55.720;37.606;2022-08-21T05:59:26;54.95;45.99;63.95;;
74496;Laerm;62979;55.720;37.606;2022-08-21T06:01:55;50.69;46.06;60.56;;
74496;Laerm;62979;55.720;37.606;2022-08-21T06:04:22;47.92;43.82;61.06;;
74496;Laerm;62979;55.720;37.606;2022-08-21T06:06:49;51.26;45.36;59.93;;
74496;Laerm;62979;55.720;37.606;2022-08-21T06:09:16;50.80;44.34;62.10;;
74496;Laerm;62979;55.720;37.606;2022-08-21T06:11:43;50.72;43.65;62.50;;
74496;Laerm;62979;55.720;37.606;2022-08-21T06:14:13;51.86;45.02;64.05;;
74496;Laerm;62979;55.720;37.606;2022-08-21T06:16:41;53.57;47.76;62.12;;
74496;Laerm;62979;55.720;37.606;2022-08-21T06:19:10;54.98;47.49;66.45;;
74496;Laerm;62979;55.720;37.606;2022-08-21T06:21:37;55.45;44.73;67.92;;
74496;Laerm;62979;55.720;37.606;2022-08-21T06:24:04;51.81;44.39;59.30;;
74496;Laerm;62979;55.720;37.606;2022-08-21T06:26:32;51.92;45.30;68.37;;
74496;Laerm;62979;55.720;37.606;2022-08-21T06:28:59;50.72;44.22;66.82;;
74496;Laerm;62979;55.720;37.606;2022-08-21T06:31:28;50.23;44.71;68.11;;
74496;Laerm;62979;55.720;37.606;2022-08-21T06:33:55;51.41;45.57;60.09;;
74496;Laerm;62979;55.720;37.606;2022-08-21T06:36:24;52.02;46.07;61.74;;
74496;Laerm;62979;55.720;37.606;2022-08-21T06:38:51;49.24;43.18;60.51;;
74496;Laerm;62979;55.720;37.606;2022-08-21T06:41:19;53.51;43.84;72.07;;
74496;Laerm;62979;55.720;37.606;2022-08-21T06:43:45;55.82;47.38;74.09;;
74496;Laerm;62979;55.720;37.606;2022-08-21T06:46:12;58.16;48.73;72.91;;
74496;Laerm;62979;55.720;37.606;2022-08-21T06:48:39;58.76;44.66;75.66;;
74496;Laerm;62979;55.720;37.606;2022-08-21T06:51:07;51.97;46.18;63.38;;
74496;Laerm;62979;55.720;37.606;2022-08-21T06:53:35;55.50;47.07;70.53;;
74496;Laerm;62979;55.720;37.606;2022-08-21T06:56:03;54.70;46.48;66.81;;
74496;Laerm;62979;55.720;37.606;2022-08-21T06:58:30;57.38;50.90;68.22;;
74496;Laerm;62979;55.720;37.606;2022-08-21T07:00:58;53.39;44.97;62.61;;
74496;Laerm;62979;55.720;37.606;2022-08-21T07:03:29;56.60;48.07;69.42;;
74496;Laerm;62979;55.720;37.606;2022-08-21T07:05:56;54.74;45.49;69.03;;
74496;Laerm;62979;55.720;37.606;2022-08-21T07:08:25;52.59;46.43;60.91;;
74496;Laerm;62979;55.720;37.606;2022-08-21T07:10:57;53.54;46.14;62.83;;
74496;Laerm;62979;55.720;37.606;2022-08-21T07:13:25;56.46;46.09;70.10;;
74496;Laerm;62979;55.720;37.606;2022-08-21T07:15:53;54.53;46.88;63.19;;
74496;Laerm;62979;55.720;37.606;2022-08-21T07:18:20;55.19;46.56;66.21;;
74496;Laerm;62979;55.720;37.606;2022-08-21T07:20:47;50.95;46.24;59.10;;
74496;Laerm;62979;55.720;37.606;2022-08-21T07:23:22;55.04;47.97;69.45;;
74496;Laerm;62979;55.720;37.606;2022-08-21T07:25:51;53.55;46.61;66.09;;
74496;Laerm;62979;55.720;37.606;2022-08-21T07:28:20;50.39;43.72;57.55;;
74496;Laerm;62979;55.720;37.606;2022-08-21T07:30:52;48.87;43.39;66.74;;
74496;Laerm;62979;55.720;37.606;2022-08-21T07:33:20;52.82;45.82;61.42;;
74496;Laerm;62979;55.720;37.606;2022-08-21T07:35:47;51.57;46.09;61.32;;
74496;Laerm;62979;55.720;37.606;2022-08-21T07:38:14;49.52;46.13;57.36;;
74496;Laerm;62979;55.720;37.606;2022-08-21T07:40:41;51.63;44.89;60.42;;
74496;Laerm;62979;55.720;37.606;2022-08-21T07:43:08;51.48;44.08;59.61;;
74496;Laerm;62979;55.720;37.606;2022-08-21T07:45:38;50.04;43.52;57.99;;
74496;Laerm;62979;55.720;37.606;2022-08-21T07:48:05;55.29;45.47;64.95;;
74496;Laerm;62979;55.720;37.606;2022-08-21T07:50:32;51.18;45.83;58.21;;
74496;Laerm;62979;55.720;37.606;2022-08-21T07:52:59;52.19;45.14;61.63;;
74496;Laerm;62979;55.720;37.606;2022-08-21T07:55:26;54.52;46.55;64.36;;
74496;Laerm;62979;55.720;37.606;2022-08-21T07:57:53;53.24;45.57;75.62;;
74496;Laerm;62979;55.720;37.606;2022-08-21T08:00:23;58.68;46.67;75.24;;
74496;Laerm;62979;55.720;37.606;2022-08-21T08:02:53;60.20;50.65;81.60;;
74496;Laerm;62979;55.720;37.606;2022-08-21T08:05:24;60.82;45.58;80.68;;
74496;Laerm;62979;55.720;37.606;2022-08-21T08:07:52;54.75;45.01;66.60;;
74496;Laerm;62979;55.720;37.606;2022-08-21T08:10:21;56.46;45.61;70.96;;
74496;Laerm;62979;55.720;37.606;2022-08-21T08:12:50;51.83;45.36;59.33;;
74496;Laerm;62979;55.720;37.606;2022-08-21T08:15:23;52.29;46.53;60.05;;
74496;Laerm;62979;55.720;37.606;2022-08-21T08:17:52;52.23;46.13;61.19;;
74496;Laerm;62979;55.720;37.606;2022-08-21T08:20:21;54.02;44.32;71.12;;
74496;Laerm;62979;55.720;37.606;2022-08-21T08:22:49;52.96;44.70;62.17;;
74496;Laerm;62979;55.720;37.606;2022-08-21T08:25:18;53.83;44.68;62.80;;
74496;Laerm;62979;55.720;37.606;2022-08-21T08:27:46;56.44;48.17;62.38;;
74496;Laerm;62979;55.720;37.606;2022-08-21T08:30:17;56.13;46.10;62.06;;
74496;Laerm;62979;55.720;37.606;2022-08-21T08:32:45;51.97;45.76;59.55;;
74496;Laerm;62979;55.720;37.606;2022-08-21T08:35:14;55.08;43.91;70.17;;
74496;Laerm;62979;55.720;37.606;2022-08-21T08:37:42;48.10;44.21;61.58;;
74496;Laerm;62979;55.720;37.606;2022-08-21T08:40:14;51.82;46.33;59.55;;
74496;Laerm;62979;55.720;37.606;2022-08-21T08:42:46;52.16;46.09;62.15;;
74496;Laerm;62979;55.720;37.606;2022-08-21T08:45:21;51.61;45.93;59.97;;
74496;Laerm;62979;55.720;37.606;2022-08-21T08:47:54;56.16;45.19;72.26;;
74496;Laerm;62979;55.720;37.606;2022-08-21T08:50:30;49.16;42.58;57.73;;
74496;Laerm;62979;55.720;37.606;2022-08-21T08:53:05;52.71;47.54;62.97;;
74496;Laerm;62979;55.720;37.606;2022-08-21T08:55:36;52.20;45.87;58.81;;
74496;Laerm;62979;55.720;37.606;2022-08-21T08:58:06;50.77;46.12;58.75;;
74496;Laerm;62979;55.720;37.606;2022-08-21T09:00:33;53.52;44.61;66.76;;
74496;Laerm;62979;55.720;37.606;2022-08-21T09:03:02;52.72;47.17;60.34;;
74496;Laerm;62979;55.720;37.606;2022-08-21T09:05:43;52.11;46.34;61.45;;
74496;Laerm;62979;55.720;37.606;2022-08-21T09:08:42;53.19;46.55;66.38;;
74496;Laerm;62979;55.720;37.606;2022-08-21T09:11:27;52.79;44.81;69.63;;
74496;Laerm;62979;55.720;37.606;2022-08-21T09:14:11;51.15;45.45;58.97;;
74496;Laerm;62979;55.720;37.606;2022-08-21T09:16:53;52.61;47.25;63.16;;
74496;Laerm;62979;55.720;37.606;2022-08-21T09:19:43;52.54;47.08;64.01;;
74496;Laerm;62979;55.720;37.606;2022-08-21T09:22:27;52.54;45.88;60.97;;
74496;Laerm;62979;55.720;37.606;2022-08-21T09:25:08;51.28;44.50;62.39;;
74496;Laerm;62979;55.720;37.606;2022-08-21T09:27:39;51.40;44.21;64.81;;
74496;Laerm;62979;55.720;37.606;2022-08-21T09:30:08;52.34;46.40;64.34;;
74496;Laerm;62979;55.720;37.606;2022-08-21T09:32:38;62.38;46.62;82.69;;
74496;Laerm;62979;55.720;37.606;2022-08-21T09:35:15;55.69;47.01;73.67;;
74496;Laerm;62979;55.720;37.606;2022-08-21T09:37:53;52.70;47.17;60.63;;
74496;Laerm;62979;55.720;37.606;2022-08-21T09:40:31;56.23;49.94;60.35;;
74496;Laerm;62979;55.720;37.606;2022-08-21T09:43:03;55.52;48.26;63.83;;
74496;Laerm;62979;55.720;37.606;2022-08-21T09:45:33;52.21;45.75;64.81;;
74496;Laerm;62979;55.720;37.606;2022-08-21T09:48:13;53.98;47.54;75.63;;
74496;Laerm;62979;55.720;37.606;2022-08-21T09:50:42;51.89;43.98;59.82;;
74496;Laerm;62979;55.720;37.606;2022-08-21T09:53:19;51.21;43.70;58.66;;
74496;Laerm;62979;55.720;37.606;2022-08-21T09:55:52;51.98;44.75;62.57;;
74496;Laerm;62979;55.720;37.606;2022-08-21T09:58:40;54.00;48.08;62.85;;
74496;Laerm;62979;55.720;37.606;2022-08-21T10:01:15;53.36;47.41;59.79;;
74496;Laerm;62979;55.720;37.606;2022-08-21T10:03:43;54.92;45.31;62.58;;
74496;Laerm;62979;55.720;37.606;2022-08-21T10:06:22;54.04;44.67;62.79;;
74496;Laerm;62979;55.720;37.606;2022-08-21T10:08:51;51.04;45.80;61.43;;
74496;Laerm;62979;55.720;37.606;2022-08-21T10:11:30;53.53;45.52;63.33;;
74496;Laerm;62979;55.720;37.606;2022-08-21T10:14:14;50.99;47.13;58.56;;
74496;Laerm;62979;55.720;37.606;2022-08-21T10:16:59;53.33;47.00;69.15;;
74496;Laerm;62979;55.720;37.606;2022-08-21T10:19:39;54.00;46.48;65.38;;
74496;Laerm;62979;55.720;37.606;2022-08-21T10:22:24;54.03;46.62;68.42;;
74496;Laerm;62979;55.720;37.606;2022-08-21T10:25:06;53.01;47.80;63.90;;
74496;Laerm;62979;55.720;37.606;2022-08-21T10:27:51;53.29;48.07;59.16;;
74496;Laerm;62979;55.720;37.606;2022-08-21T10:30:36;52.97;47.93;62.08;;
74496;Laerm;62979;55.720;37.606;2022-08-21T10:33:20;52.01;44.53;61.57;;
74496;Laerm;62979;55.720;37.606;2022-08-21T10:35:59;53.38;45.73;65.18;;
74496;Laerm;62979;55.720;37.606;2022-08-21T10:38:56;52.69;46.76;63.82;;
74496;Laerm;62979;55.720;37.606;2022-08-21T10:41:42;53.96;47.05;64.73;;
74496;Laerm;62979;55.720;37.606;2022-08-21T10:44:24;53.85;47.31;64.51;;
74496;Laerm;62979;55.720;37.606;2022-08-21T10:47:03;53.26;45.61;69.72;;
74496;Laerm;62979;55.720;37.606;2022-08-21T10:49:39;54.93;46.94;64.02;;
74496;Laerm;62979;55.720;37.606;2022-08-21T10:52:47;57.52;46.88;77.66;;
74496;Laerm;62979;55.720;37.606;2022-08-21T10:55:22;53.12;46.32;64.34;;
74496;Laerm;62979;55.720;37.606;2022-08-21T10:57:58;53.97;47.49;62.83;;
74496;Laerm;62979;55.720;37.606;2022-08-21T11:00:33;51.56;45.49;62.73;;
74496;Laerm;62979;55.720;37.606;2022-08-21T11:03:11;53.12;47.19;62.40;;
74496;Laerm;62979;55.720;37.606;2022-08-21T11:05:45;54.28;46.37;76.12;;
74496;Laerm;62979;55.720;37.606;2022-08-21T11:08:22;53.50;48.36;60.88;;
74496;Laerm;62979;55.720;37.606;2022-08-21T11:10:58;54.72;47.19;66.67;;
74496;Laerm;62979;55.720;37.606;2022-08-21T11:13:42;52.24;45.17;62.29;;
74496;Laerm;62979;55.720;37.606;2022-08-21T11:16:21;52.73;47.04;60.10;;
74496;Laerm;62979;55.720;37.606;2022-08-21T11:18:58;54.15;47.12;67.85;;
74496;Laerm;62979;55.720;37.606;2022-08-21T11:21:38;51.94;46.60;64.69;;
74496;Laerm;62979;55.720;37.606;2022-08-21T11:24:29;57.09;47.92;75.85;;
74496;Laerm;62979;55.720;37.606;2022-08-21T11:27:06;53.63;44.91;65.44;;
74496;Laerm;62979;55.720;37.606;2022-08-21T11:29:39;52.53;47.54;62.87;;
74496;Laerm;62979;55.720;37.606;2022-08-21T11:32:36;54.73;48.12;67.90;;
74496;Laerm;62979;55.720;37.606;2022-08-21T11:35:20;52.90;46.12;61.71;;
74496;Laerm;62979;55.720;37.606;2022-08-21T11:38:11;54.20;47.43;65.35;;
74496;Laerm;62979;55.720;37.606;2022-08-21T11:40:55;55.14;45.62;65.14;;
74496;Laerm;62979;55.720;37.606;2022-08-21T11:43:38;57.79;46.97;82.01;;
74496;Laerm;62979;55.720;37.606;2022-08-21T11:46:29;56.41;47.15;63.47;;
74496;Laerm;62979;55.720;37.606;2022-08-21T11:49:17;55.98;47.48;63.79;;
74496;Laerm;62979;55.720;37.606;2022-08-21T11:51:57;54.05;48.03;68.23;;
74496;Laerm;62979;55.720;37.606;2022-08-21T11:54:36;56.08;46.92;69.97;;
74496;Laerm;62979;55.720;37.606;2022-08-21T11:57:15;57.31;47.96;68.91;;
74496;Laerm;62979;55.720;37.606;2022-08-21T11:59:49;56.44;47.60;73.10;;
74496;Laerm;62979;55.720;37.606;2022-08-21T12:02:24;50.98;46.81;59.64;;
74496;Laerm;62979;55.720;37.606;2022-08-21T12:04:59;52.67;45.04;61.74;;
74496;Laerm;62979;55.720;37.606;2022-08-21T12:07:35;53.62;46.36;69.38;;
74496;Laerm;62979;55.720;37.606;2022-08-21T12:10:08;52.92;48.42;66.81;;
74496;Laerm;62979;55.720;37.606;2022-08-21T12:12:38;51.83;46.56;59.29;;
74496;Laerm;62979;55.720;37.606;2022-08-21T12:15:26;52.05;47.24;64.42;;
74496;Laerm;62979;55.720;37.606;2022-08-21T12:18:01;52.05;45.49;59.49;;
74496;Laerm;62979;55.720;37.606;2022-08-21T12:20:43;53.05;45.47;65.42;;
74496;Laerm;62979;55.720;37.606;2022-08-21T12:23:27;56.79;48.23;71.37;;
74496;Laerm;62979;55.720;37.606;2022-08-21T12:26:18;53.24;46.85;68.25;;
74496;Laerm;62979;55.720;37.606;2022-08-21T12:28:47;56.31;48.95;72.71;;
74496;Laerm;62979;55.720;37.606;2022-08-21T12:31:28;54.12;44.60;67.62;;
74496;Laerm;62979;55.720;37.606;2022-08-21T12:34:01;55.77;46.58;67.22;;
74496;Laerm;62979;55.720;37.606;2022-08-21T12:36:42;54.43;48.80;70.56;;
74496;Laerm;62979;55.720;37.606;2022-08-21T12:39:17;51.99;47.17;60.18;;
74496;Laerm;62979;55.720;37.606;2022-08-21T12:41:56;52.72;47.63;62.11;;
74496;Laerm;62979;55.720;37.606;2022-08-21T12:44:34;59.64;46.46;75.20;;
74496;Laerm;62979;55.720;37.606;2022-08-21T12:47:06;54.64;47.97;63.67;;
74496;Laerm;62979;55.720;37.606;2022-08-21T12:49:54;58.02;48.59;76.73;;
74496;Laerm;62979;55.720;37.606;2022-08-21T12:52:29;54.25;46.57;61.22;;
74496;Laerm;62979;55.720;37.606;2022-08-21T12:54:56;61.56;46.85;81.37;;
74496;Laerm;62979;55.720;37.606;2022-08-21T12:57:27;53.30;44.80;66.52;;
74496;Laerm;62979;55.720;37.606;2022-08-21T12:59:56;54.16;49.46;60.15;;
74496;Laerm;62979;55.720;37.606;2022-08-21T13:02:29;52.91;46.78;61.18;;
74496;Laerm;62979;55.720;37.606;2022-08-21T13:05:03;61.97;46.87;77.55;;
74496;Laerm;62979;55.720;37.606;2022-08-21T13:07:35;54.51;46.37;63.28;;
74496;Laerm;62979;55.720;37.606;2022-08-21T13:10:07;53.71;46.55;60.30;;
74496;Laerm;62979;55.720;37.606;2022-08-21T13:12:41;53.78;48.10;64.13;;
74496;Laerm;62979;55.720;37.606;2022-08-21T13:15:11;54.45;48.16;65.07;;
74496;Laerm;62979;55.720;37.606;2022-08-21T13:17:42;55.41;48.86;68.89;;
74496;Laerm;62979;55.720;37.606;2022-08-21T13:20:24;54.40;44.42;66.12;;
74496;Laerm;62979;55.720;37.606;2022-08-21T13:22:51;55.26;46.66;71.36;;
74496;Laerm;62979;55.720;37.606;2022-08-21T13:25:25;57.46;47.56;72.20;;
74496;Laerm;62979;55.720;37.606;2022-08-21T13:28:00;62.11;47.51;78.89;;
74496;Laerm;62979;55.720;37.606;2022-08-21T13:30:28;54.17;48.37;61.38;;
74496;Laerm;62979;55.720;37.606;2022-08-21T13:32:59;53.65;46.59;60.68;;
74496;Laerm;62979;55.720;37.606;2022-08-21T13:35:44;57.10;49.01;71.78;;
74496;Laerm;62979;55.720;37.606;2022-08-21T13:38:13;58.37;48.19;70.54;;
74496;Laerm;62979;55.720;37.606;2022-08-21T13:40:49;61.47;48.32;81.67;;
74496;Laerm;62979;55.720;37.606;2022-08-21T13:43:22;54.22;47.07;64.30;;
74496;Laerm;62979;55.720;37.606;2022-08-21T13:45:54;58.31;47.70;84.61;;
74496;Laerm;62979;55.720;37.606;2022-08-21T13:48:26;55.00;47.92;65.96;;
74496;Laerm;62979;55.720;37.606;2022-08-21T13:50:57;57.12;48.79;76.51;;
74496;Laerm;62979;55.720;37.606;2022-08-21T13:53:30;57.33;48.93;81.91;;
74496;Laerm;62979;55.720;37.606;2022-08-21T13:55:59;54.56;48.41;63.84;;
74496;Laerm;62979;55.720;37.606;2022-08-21T13:58:30;53.51;47.52;67.73;;